sensor_id;sensor_type;location;lat;lon;timestamp;pressure;altitude;pressure_sealevel;temperature;humidity
60258;BME280;46115;44.484;11.314;2023-04-03T00:03:43;100023.31;;;9.21;75.69
60258;BME280;46115;44.484;11.314;2023-04-03T00:07:45;100017.72;;;9.27;75.77
60258;BME280;46115;44.484;11.314;2023-04-03T00:11:48;100016.41;;;9.36;75.72
60258;BME280;46115;44.484;11.314;2023-04-03T00:15:52;100013.31;;;9.28;75.88
60258;BME280;46115;44.484;11.314;2023-04-03T00:19:54;100011.38;;;9.31;75.97
60258;BME280;46115;44.484;11.314;2023-04-03T00:23:57;99992.81;;;9.33;75.23
60258;BME280;46115;44.484;11.314;2023-04-03T00:27:59;99988.31;;;9.52;74.55
60258;BME280;46115;44.484;11.314;2023-04-03T00:32:04;99993.06;;;9.46;74.03
60258;BME280;46115;44.484;11.314;2023-04-03T00:36:07;99993.22;;;9.43;74.56
60258;BME280;46115;44.484;11.314;2023-04-03T00:40:10;99991.16;;;9.65;74.09
60258;BME280;46115;44.484;11.314;2023-04-03T00:49:05;99991.47;;;9.59;73.26
60258;BME280;46115;44.484;11.314;2023-04-03T00:53:12;99989.16;;;9.35;73.88
60258;BME280;46115;44.484;11.314;2023-04-03T00:57:16;99990.34;;;9.47;74.01
60258;BME280;46115;44.484;11.314;2023-04-03T01:01:21;99992.97;;;9.30;74.86
60258;BME280;46115;44.484;11.314;2023-04-03T01:05:26;99984.31;;;9.11;75.00
60258;BME280;46115;44.484;11.314;2023-04-03T01:09:29;99964.22;;;8.91;75.07
60258;BME280;46115;44.484;11.314;2023-04-03T01:13:33;99981.13;;;9.04;75.23
60258;BME280;46115;44.484;11.314;2023-04-03T01:17:37;99992.53;;;9.22;74.26
60258;BME280;46115;44.484;11.314;2023-04-03T01:22:03;99994.41;;;9.37;74.85
60258;BME280;46115;44.484;11.314;2023-04-03T01:26:14;99991.28;;;9.46;74.07
60258;BME280;46115;44.484;11.314;2023-04-03T01:30:19;99990.50;;;9.44;73.97
60258;BME280;46115;44.484;11.314;2023-04-03T01:34:24;99989.03;;;9.38;74.92
60258;BME280;46115;44.484;11.314;2023-04-03T01:38:27;99985.50;;;9.55;73.31
60258;BME280;46115;44.484;11.314;2023-04-03T01:42:30;99981.16;;;9.54;72.82
60258;BME280;46115;44.484;11.314;2023-04-03T01:46:32;99984.47;;;9.42;74.33
60258;BME280;46115;44.484;11.314;2023-04-03T01:50:37;99988.91;;;9.07;75.47
60258;BME280;46115;44.484;11.314;2023-04-03T01:54:39;99982.44;;;9.47;73.66
60258;BME280;46115;44.484;11.314;2023-04-03T01:58:42;99984.69;;;9.20;74.50
60258;BME280;46115;44.484;11.314;2023-04-03T02:02:45;99983.19;;;9.32;75.11
60258;BME280;46115;44.484;11.314;2023-04-03T02:06:50;99969.13;;;8.45;78.22
60258;BME280;46115;44.484;11.314;2023-04-03T02:10:52;99969.06;;;8.64;77.10
60258;BME280;46115;44.484;11.314;2023-04-03T02:14:55;99964.44;;;8.69;76.51
60258;BME280;46115;44.484;11.314;2023-04-03T02:18:57;99969.09;;;8.98;75.63
60258;BME280;46115;44.484;11.314;2023-04-03T02:23:02;99973.59;;;8.79;76.20
60258;BME280;46115;44.484;11.314;2023-04-03T02:27:05;99971.50;;;8.86;75.80
60258;BME280;46115;44.484;11.314;2023-04-03T02:31:09;99966.63;;;8.95;75.55
60258;BME280;46115;44.484;11.314;2023-04-03T02:35:14;99973.75;;;8.93;75.41
60258;BME280;46115;44.484;11.314;2023-04-03T02:39:18;99976.25;;;9.14;74.95
60258;BME280;46115;44.484;11.314;2023-04-03T02:43:22;99967.56;;;9.12;76.00
60258;BME280;46115;44.484;11.314;2023-04-03T02:47:25;99975.00;;;9.38;74.42
60258;BME280;46115;44.484;11.314;2023-04-03T02:51:27;99975.53;;;9.45;74.60
60258;BME280;46115;44.484;11.314;2023-04-03T02:55:31;99967.25;;;9.68;73.91
60258;BME280;46115;44.484;11.314;2023-04-03T02:59:34;99958.84;;;9.77;74.18
60258;BME280;46115;44.484;11.314;2023-04-03T03:03:37;99962.78;;;9.35;76.22
60258;BME280;46115;44.484;11.314;2023-04-03T03:07:39;99964.81;;;9.48;75.35
60258;BME280;46115;44.484;11.314;2023-04-03T03:11:43;99955.56;;;9.56;73.99
60258;BME280;46115;44.484;11.314;2023-04-03T03:15:46;99967.84;;;9.23;75.44
60258;BME280;46115;44.484;11.314;2023-04-03T03:19:48;99965.22;;;9.40;74.77
60258;BME280;46115;44.484;11.314;2023-04-03T03:23:50;99971.38;;;9.56;75.49
60258;BME280;46115;44.484;11.314;2023-04-03T03:27:54;99954.09;;;9.51;75.41
60258;BME280;46115;44.484;11.314;2023-04-03T03:31:57;99959.47;;;9.32;75.24
60258;BME280;46115;44.484;11.314;2023-04-03T03:35:59;99954.75;;;9.38;74.78
60258;BME280;46115;44.484;11.314;2023-04-03T03:40:02;99956.97;;;9.79;75.21
60258;BME280;46115;44.484;11.314;2023-04-03T03:44:07;99964.22;;;9.76;75.34
60258;BME280;46115;44.484;11.314;2023-04-03T03:48:10;99963.38;;;9.75;74.31
60258;BME280;46115;44.484;11.314;2023-04-03T03:52:12;99959.28;;;9.52;74.89
60258;BME280;46115;44.484;11.314;2023-04-03T03:56:15;99953.25;;;9.83;73.94
60258;BME280;46115;44.484;11.314;2023-04-03T04:00:21;99954.84;;;9.37;75.13
60258;BME280;46115;44.484;11.314;2023-04-03T04:04:28;99960.03;;;9.72;74.98
60258;BME280;46115;44.484;11.314;2023-04-03T04:08:31;99964.22;;;9.76;75.05
60258;BME280;46115;44.484;11.314;2023-04-03T04:12:34;99961.50;;;9.93;74.24
60258;BME280;46115;44.484;11.314;2023-04-03T04:16:38;99963.03;;;9.81;74.94
60258;BME280;46115;44.484;11.314;2023-04-03T04:20:46;99967.88;;;9.89;74.26
60258;BME280;46115;44.484;11.314;2023-04-03T04:24:51;99973.44;;;10.00;74.96
60258;BME280;46115;44.484;11.314;2023-04-03T04:28:53;99969.97;;;9.66;76.19
60258;BME280;46115;44.484;11.314;2023-04-03T04:32:57;99985.84;;;9.82;75.86
60258;BME280;46115;44.484;11.314;2023-04-03T04:37:01;99982.03;;;9.88;75.67
60258;BME280;46115;44.484;11.314;2023-04-03T04:41:04;99948.72;;;8.85;78.19
60258;BME280;46115;44.484;11.314;2023-04-03T04:45:07;99988.41;;;9.33;77.81
60258;BME280;46115;44.484;11.314;2023-04-03T04:49:13;99993.78;;;9.15;77.89
60258;BME280;46115;44.484;11.314;2023-04-03T04:53:15;99992.81;;;9.33;77.15
60258;BME280;46115;44.484;11.314;2023-04-03T04:57:18;99994.25;;;9.40;75.94
60258;BME280;46115;44.484;11.314;2023-04-03T05:01:22;99991.69;;;9.38;76.38
60258;BME280;46115;44.484;11.314;2023-04-03T05:05:33;100007.00;;;9.65;75.56
60258;BME280;46115;44.484;11.314;2023-04-03T05:09:37;99994.69;;;9.31;76.93
60258;BME280;46115;44.484;11.314;2023-04-03T05:13:40;100005.38;;;8.93;78.26
60258;BME280;46115;44.484;11.314;2023-04-03T05:17:43;100015.72;;;9.50;76.45
60258;BME280;46115;44.484;11.314;2023-04-03T05:21:49;100015.25;;;9.24;77.65
60258;BME280;46115;44.484;11.314;2023-04-03T05:25:53;100011.28;;;9.33;76.99
60258;BME280;46115;44.484;11.314;2023-04-03T05:29:57;100011.69;;;9.25;77.22
60258;BME280;46115;44.484;11.314;2023-04-03T05:34:01;100007.81;;;9.15;78.50
60258;BME280;46115;44.484;11.314;2023-04-03T05:38:08;100017.81;;;9.26;77.62
60258;BME280;46115;44.484;11.314;2023-04-03T05:42:10;100012.88;;;9.37;77.21
60258;BME280;46115;44.484;11.314;2023-04-03T05:46:15;100016.03;;;9.26;77.84
60258;BME280;46115;44.484;11.314;2023-04-03T05:50:20;100015.63;;;9.34;77.15
60258;BME280;46115;44.484;11.314;2023-04-03T05:54:28;100023.06;;;9.78;76.35
60258;BME280;46115;44.484;11.314;2023-04-03T05:58:47;100032.91;;;9.74;76.79
60258;BME280;46115;44.484;11.314;2023-04-03T06:02:49;100031.09;;;9.92;76.96
60258;BME280;46115;44.484;11.314;2023-04-03T06:06:57;100033.69;;;10.09;74.50
60258;BME280;46115;44.484;11.314;2023-04-03T06:11:02;100038.84;;;9.95;75.67
60258;BME280;46115;44.484;11.314;2023-04-03T06:15:06;100040.69;;;9.77;76.07
60258;BME280;46115;44.484;11.314;2023-04-03T06:19:09;100035.69;;;10.37;74.82
60258;BME280;46115;44.484;11.314;2023-04-03T06:23:15;100036.25;;;9.78;76.30
60258;BME280;46115;44.484;11.314;2023-04-03T06:27:20;100039.38;;;10.66;73.60
60258;BME280;46115;44.484;11.314;2023-04-03T06:31:22;100044.25;;;10.42;74.57
60258;BME280;46115;44.484;11.314;2023-04-03T06:35:25;100050.75;;;11.14;72.51
60258;BME280;46115;44.484;11.314;2023-04-03T06:39:29;100045.13;;;11.34;73.78
60258;BME280;46115;44.484;11.314;2023-04-03T06:43:33;100033.28;;;12.00;69.47
60258;BME280;46115;44.484;11.314;2023-04-03T06:47:35;100037.28;;;12.48;67.25
60258;BME280;46115;44.484;11.314;2023-04-03T06:51:38;100057.03;;;12.71;66.90
60258;BME280;46115;44.484;11.314;2023-04-03T06:55:41;100059.41;;;13.02;65.34
60258;BME280;46115;44.484;11.314;2023-04-03T06:59:45;100063.34;;;14.14;61.76
60258;BME280;46115;44.484;11.314;2023-04-03T07:03:47;100062.69;;;14.36;60.97
60258;BME280;46115;44.484;11.314;2023-04-03T07:07:50;100069.00;;;15.08;59.98
60258;BME280;46115;44.484;11.314;2023-04-03T07:11:52;100070.94;;;14.70;60.73
60258;BME280;46115;44.484;11.314;2023-04-03T07:15:57;100071.25;;;15.25;57.79
60258;BME280;46115;44.484;11.314;2023-04-03T07:19:59;100072.09;;;15.26;58.04
60258;BME280;46115;44.484;11.314;2023-04-03T07:24:06;100067.94;;;15.46;57.19
60258;BME280;46115;44.484;11.314;2023-04-03T07:28:08;100071.19;;;15.14;57.13
60258;BME280;46115;44.484;11.314;2023-04-03T07:32:12;100082.25;;;15.56;57.66
60258;BME280;46115;44.484;11.314;2023-04-03T07:36:16;100081.22;;;16.27;56.36
60258;BME280;46115;44.484;11.314;2023-04-03T07:40:19;100084.75;;;16.72;54.50
60258;BME280;46115;44.484;11.314;2023-04-03T07:44:22;100085.72;;;16.82;53.56
60258;BME280;46115;44.484;11.314;2023-04-03T07:48:26;100092.44;;;17.09;52.52
60258;BME280;46115;44.484;11.314;2023-04-03T07:52:28;100096.00;;;16.53;53.82
60258;BME280;46115;44.484;11.314;2023-04-03T07:56:31;100095.88;;;17.32;52.74
60258;BME280;46115;44.484;11.314;2023-04-03T08:00:34;100098.84;;;18.02;51.24
60258;BME280;46115;44.484;11.314;2023-04-03T08:04:38;100097.56;;;18.27;50.23
60258;BME280;46115;44.484;11.314;2023-04-03T08:08:41;100102.31;;;17.61;52.02
60258;BME280;46115;44.484;11.314;2023-04-03T08:12:45;100113.28;;;18.11;50.83
60258;BME280;46115;44.484;11.314;2023-04-03T08:16:48;100110.19;;;17.42;52.06
60258;BME280;46115;44.484;11.314;2023-04-03T08:20:52;100109.09;;;16.90;53.33
60258;BME280;46115;44.484;11.314;2023-04-03T08:24:54;100099.81;;;17.17;52.53
60258;BME280;46115;44.484;11.314;2023-04-03T08:28:57;100099.63;;;16.19;55.69
60258;BME280;46115;44.484;11.314;2023-04-03T08:33:00;100100.91;;;16.71;53.61
60258;BME280;46115;44.484;11.314;2023-04-03T08:37:04;100096.88;;;16.32;54.76
60258;BME280;46115;44.484;11.314;2023-04-03T08:41:13;100093.03;;;15.78;56.47
60258;BME280;46115;44.484;11.314;2023-04-03T08:45:22;100113.09;;;16.29;54.50
60258;BME280;46115;44.484;11.314;2023-04-03T08:49:31;100101.31;;;14.03;61.67
60258;BME280;46115;44.484;11.314;2023-04-03T08:53:39;100110.31;;;15.25;59.68
60258;BME280;46115;44.484;11.314;2023-04-03T08:57:45;100104.47;;;15.33;58.81
60258;BME280;46115;44.484;11.314;2023-04-03T09:01:50;100108.09;;;14.20;61.92
60258;BME280;46115;44.484;11.314;2023-04-03T09:05:55;100105.00;;;14.52;60.26
60258;BME280;46115;44.484;11.314;2023-04-03T09:10:01;100106.50;;;13.92;63.30
60258;BME280;46115;44.484;11.314;2023-04-03T09:14:09;100103.63;;;13.43;65.74
60258;BME280;46115;44.484;11.314;2023-04-03T09:18:20;100097.69;;;13.52;65.41
60258;BME280;46115;44.484;11.314;2023-04-03T09:22:25;100101.03;;;13.56;65.62
60258;BME280;46115;44.484;11.314;2023-04-03T09:26:33;100108.06;;;13.82;64.19
60258;BME280;46115;44.484;11.314;2023-04-03T09:30:37;100095.66;;;12.89;67.11
60258;BME280;46115;44.484;11.314;2023-04-03T09:34:41;100115.00;;;13.45;66.34
60258;BME280;46115;44.484;11.314;2023-04-03T09:38:45;100112.13;;;13.35;66.43
60258;BME280;46115;44.484;11.314;2023-04-03T09:42:49;100108.28;;;13.12;66.60
60258;BME280;46115;44.484;11.314;2023-04-03T09:46:52;100111.50;;;13.45;65.24
60258;BME280;46115;44.484;11.314;2023-04-03T09:50:59;100094.69;;;13.31;65.62
60258;BME280;46115;44.484;11.314;2023-04-03T09:55:07;100077.34;;;12.99;64.78
60258;BME280;46115;44.484;11.314;2023-04-03T09:59:15;100109.47;;;12.94;66.39
60258;BME280;46115;44.484;11.314;2023-04-03T10:03:25;100097.91;;;12.54;67.25
60258;BME280;46115;44.484;11.314;2023-04-03T10:07:32;100093.84;;;12.20;69.44
60258;BME280;46115;44.484;11.314;2023-04-03T10:11:35;100098.97;;;12.23;71.17
60258;BME280;46115;44.484;11.314;2023-04-03T10:15:41;100090.16;;;12.92;68.75
60258;BME280;46115;44.484;11.314;2023-04-03T10:19:47;100089.53;;;12.74;68.84
60258;BME280;46115;44.484;11.314;2023-04-03T10:23:59;100083.59;;;12.57;69.03
60258;BME280;46115;44.484;11.314;2023-04-03T10:28:06;100076.94;;;13.19;67.13
60258;BME280;46115;44.484;11.314;2023-04-03T10:32:24;100081.63;;;14.06;64.28
60258;BME280;46115;44.484;11.314;2023-04-03T10:36:37;100078.75;;;14.60;59.54
60258;BME280;46115;44.484;11.314;2023-04-03T10:40:47;100083.66;;;13.37;59.05
60258;BME280;46115;44.484;11.314;2023-04-03T10:45:03;100084.09;;;13.44;58.39
60258;BME280;46115;44.484;11.314;2023-04-03T10:49:22;100083.94;;;13.20;60.41
60258;BME280;46115;44.484;11.314;2023-04-03T10:53:31;100081.84;;;13.38;59.54
60258;BME280;46115;44.484;11.314;2023-04-03T10:57:37;100068.00;;;13.60;59.02
60258;BME280;46115;44.484;11.314;2023-04-03T11:01:44;100083.09;;;13.59;56.65
60258;BME280;46115;44.484;11.314;2023-04-03T11:05:51;100060.25;;;13.82;55.93
60258;BME280;46115;44.484;11.314;2023-04-03T11:09:59;100055.53;;;13.48;55.08
60258;BME280;46115;44.484;11.314;2023-04-03T11:14:09;100051.28;;;13.45;54.88
60258;BME280;46115;44.484;11.314;2023-04-03T11:18:17;100067.38;;;13.56;55.76
60258;BME280;46115;44.484;11.314;2023-04-03T11:22:25;100050.53;;;13.43;53.67
60258;BME280;46115;44.484;11.314;2023-04-03T11:26:31;100045.22;;;13.43;50.10
60258;BME280;46115;44.484;11.314;2023-04-03T11:30:43;100043.16;;;13.73;50.33
60258;BME280;46115;44.484;11.314;2023-04-03T11:34:49;100022.19;;;14.07;49.10
60258;BME280;46115;44.484;11.314;2023-04-03T11:38:55;100031.47;;;13.76;49.50
60258;BME280;46115;44.484;11.314;2023-04-03T11:43:05;100028.44;;;14.19;49.22
60258;BME280;46115;44.484;11.314;2023-04-03T11:47:11;100020.63;;;14.04;50.00
60258;BME280;46115;44.484;11.314;2023-04-03T11:56:00;100023.91;;;13.57;49.85
60258;BME280;46115;44.484;11.314;2023-04-03T12:09:28;100003.94;;;14.02;48.18
60258;BME280;46115;44.484;11.314;2023-04-03T12:13:32;99999.69;;;14.00;48.31
60258;BME280;46115;44.484;11.314;2023-04-03T12:17:35;99991.09;;;13.71;48.33
60258;BME280;46115;44.484;11.314;2023-04-03T12:22:10;99992.69;;;14.35;47.00
60258;BME280;46115;44.484;11.314;2023-04-03T12:26:21;99974.41;;;13.43;47.45
60258;BME280;46115;44.484;11.314;2023-04-03T12:30:27;99978.44;;;13.74;47.70
60258;BME280;46115;44.484;11.314;2023-04-03T12:34:51;99986.63;;;14.46;47.73
60258;BME280;46115;44.484;11.314;2023-04-03T12:39:16;99981.38;;;14.08;47.02
60258;BME280;46115;44.484;11.314;2023-04-03T12:43:34;99980.88;;;13.90;46.11
60258;BME280;46115;44.484;11.314;2023-04-03T12:47:42;99986.75;;;14.32;45.89
60258;BME280;46115;44.484;11.314;2023-04-03T12:51:46;99974.41;;;13.56;46.26
60258;BME280;46115;44.484;11.314;2023-04-03T12:55:53;99978.31;;;14.01;46.12
60258;BME280;46115;44.484;11.314;2023-04-03T12:59:56;99979.91;;;14.04;44.42
60258;BME280;46115;44.484;11.314;2023-04-03T13:04:00;99978.34;;;13.89;44.55
60258;BME280;46115;44.484;11.314;2023-04-03T13:08:04;99969.50;;;13.76;45.28
60258;BME280;46115;44.484;11.314;2023-04-03T13:12:11;99945.84;;;13.60;45.83
60258;BME280;46115;44.484;11.314;2023-04-03T13:16:16;99966.44;;;13.69;45.12
60258;BME280;46115;44.484;11.314;2023-04-03T13:20:24;99962.47;;;13.87;45.36
60258;BME280;46115;44.484;11.314;2023-04-03T13:24:28;99955.56;;;13.97;45.13
60258;BME280;46115;44.484;11.314;2023-04-03T13:28:31;99939.22;;;13.78;45.34
60258;BME280;46115;44.484;11.314;2023-04-03T13:32:35;99946.34;;;13.90;44.94
60258;BME280;46115;44.484;11.314;2023-04-03T13:36:43;99938.50;;;13.25;45.40
60258;BME280;46115;44.484;11.314;2023-04-03T13:40:48;99955.41;;;13.10;45.19
60258;BME280;46115;44.484;11.314;2023-04-03T13:45:09;99937.19;;;13.82;44.24
60258;BME280;46115;44.484;11.314;2023-04-03T13:49:20;99942.38;;;14.09;44.89
60258;BME280;46115;44.484;11.314;2023-04-03T13:53:24;99948.78;;;13.42;44.94
60258;BME280;46115;44.484;11.314;2023-04-03T13:57:27;99940.28;;;13.88;44.46
60258;BME280;46115;44.484;11.314;2023-04-03T14:01:40;99936.41;;;13.56;43.82
60258;BME280;46115;44.484;11.314;2023-04-03T14:05:43;99939.06;;;13.56;44.64
60258;BME280;46115;44.484;11.314;2023-04-03T14:09:48;99945.72;;;13.49;43.64
60258;BME280;46115;44.484;11.314;2023-04-03T14:13:51;99934.13;;;13.88;43.73
60258;BME280;46115;44.484;11.314;2023-04-03T14:17:53;99931.78;;;13.83;42.99
60258;BME280;46115;44.484;11.314;2023-04-03T14:21:57;99920.97;;;13.48;43.50
60258;BME280;46115;44.484;11.314;2023-04-03T14:26:01;99947.94;;;13.29;42.63
60258;BME280;46115;44.484;11.314;2023-04-03T14:30:07;99934.47;;;13.58;42.58
60258;BME280;46115;44.484;11.314;2023-04-03T14:34:11;99930.19;;;13.17;43.27
60258;BME280;46115;44.484;11.314;2023-04-03T14:38:22;99915.47;;;13.38;41.91
60258;BME280;46115;44.484;11.314;2023-04-03T14:42:29;99917.25;;;13.38;42.83
60258;BME280;46115;44.484;11.314;2023-04-03T14:46:34;99911.84;;;13.39;43.01
60258;BME280;46115;44.484;11.314;2023-04-03T14:50:37;99909.28;;;13.51;43.44
60258;BME280;46115;44.484;11.314;2023-04-03T14:54:40;99907.59;;;13.50;43.35
60258;BME280;46115;44.484;11.314;2023-04-03T14:58:44;99897.88;;;13.87;42.52
60258;BME280;46115;44.484;11.314;2023-04-03T15:02:50;99908.53;;;13.74;43.73
60258;BME280;46115;44.484;11.314;2023-04-03T15:06:53;99903.84;;;13.90;43.51
60258;BME280;46115;44.484;11.314;2023-04-03T15:10:56;99910.16;;;13.38;44.71
60258;BME280;46115;44.484;11.314;2023-04-03T15:15:00;99905.06;;;13.35;44.24
60258;BME280;46115;44.484;11.314;2023-04-03T15:19:03;99914.34;;;13.16;44.70
60258;BME280;46115;44.484;11.314;2023-04-03T15:23:05;99910.84;;;13.15;44.77
60258;BME280;46115;44.484;11.314;2023-04-03T15:27:08;99914.19;;;13.19;44.52
60258;BME280;46115;44.484;11.314;2023-04-03T15:31:12;99904.50;;;13.43;44.83
60258;BME280;46115;44.484;11.314;2023-04-03T15:35:14;99901.53;;;13.48;43.88
60258;BME280;46115;44.484;11.314;2023-04-03T15:39:17;99900.81;;;13.20;44.61
60258;BME280;46115;44.484;11.314;2023-04-03T15:43:19;99906.53;;;13.39;44.39
60258;BME280;46115;44.484;11.314;2023-04-03T15:47:24;99900.19;;;13.55;44.11
60258;BME280;46115;44.484;11.314;2023-04-03T15:51:26;99906.22;;;13.44;43.74
60258;BME280;46115;44.484;11.314;2023-04-03T15:55:29;99900.19;;;13.29;42.17
60258;BME280;46115;44.484;11.314;2023-04-03T15:59:32;99897.53;;;13.29;42.84
60258;BME280;46115;44.484;11.314;2023-04-03T16:03:36;99902.50;;;13.59;42.74
60258;BME280;46115;44.484;11.314;2023-04-03T16:07:40;99899.91;;;13.07;43.67
60258;BME280;46115;44.484;11.314;2023-04-03T16:11:42;99898.41;;;13.03;43.69
60258;BME280;46115;44.484;11.314;2023-04-03T16:15:45;99899.00;;;13.46;43.04
60258;BME280;46115;44.484;11.314;2023-04-03T16:19:49;99900.91;;;13.44;42.48
60258;BME280;46115;44.484;11.314;2023-04-03T16:23:51;99901.53;;;13.48;42.88
60258;BME280;46115;44.484;11.314;2023-04-03T16:27:53;99895.09;;;13.26;42.90
60258;BME280;46115;44.484;11.314;2023-04-03T16:31:57;99902.50;;;13.21;43.75
60258;BME280;46115;44.484;11.314;2023-04-03T16:36:03;99898.25;;;12.79;43.76
60258;BME280;46115;44.484;11.314;2023-04-03T16:40:07;99921.47;;;12.63;44.20
60258;BME280;46115;44.484;11.314;2023-04-03T16:44:10;99909.38;;;12.71;44.35
60258;BME280;46115;44.484;11.314;2023-04-03T16:48:12;99913.28;;;12.93;43.54
60258;BME280;46115;44.484;11.314;2023-04-03T16:52:16;99922.75;;;12.70;44.47
60258;BME280;46115;44.484;11.314;2023-04-03T16:56:18;99921.91;;;12.69;44.13
60258;BME280;46115;44.484;11.314;2023-04-03T17:00:21;99924.34;;;12.45;44.42
60258;BME280;46115;44.484;11.314;2023-04-03T17:04:24;99920.50;;;12.64;44.36
60258;BME280;46115;44.484;11.314;2023-04-03T17:08:27;99921.75;;;12.85;44.11
60258;BME280;46115;44.484;11.314;2023-04-03T17:12:30;99932.09;;;12.48;44.13
60258;BME280;46115;44.484;11.314;2023-04-03T17:16:32;99933.97;;;12.34;44.96
60258;BME280;46115;44.484;11.314;2023-04-03T17:20:35;99942.81;;;12.74;44.70
60258;BME280;46115;44.484;11.314;2023-04-03T17:24:40;99938.22;;;12.36;44.52
60258;BME280;46115;44.484;11.314;2023-04-03T17:28:42;99933.66;;;12.65;43.59
60258;BME280;46115;44.484;11.314;2023-04-03T17:32:44;99928.63;;;12.21;44.46
60258;BME280;46115;44.484;11.314;2023-04-03T17:36:47;99942.47;;;12.66;43.80
60258;BME280;46115;44.484;11.314;2023-04-03T17:40:55;99944.13;;;12.54;43.37
60258;BME280;46115;44.484;11.314;2023-04-03T17:44:58;99939.09;;;12.23;43.08
60258;BME280;46115;44.484;11.314;2023-04-03T17:49:01;99949.97;;;12.59;43.08
60258;BME280;46115;44.484;11.314;2023-04-03T17:53:04;99956.69;;;12.65;44.01
60258;BME280;46115;44.484;11.314;2023-04-03T17:57:08;99953.06;;;12.39;45.05
60258;BME280;46115;44.484;11.314;2023-04-03T18:01:12;99964.50;;;11.98;46.48
60258;BME280;46115;44.484;11.314;2023-04-03T18:05:15;99966.97;;;11.87;47.65
60258;BME280;46115;44.484;11.314;2023-04-03T18:09:20;99980.03;;;11.90;47.92
60258;BME280;46115;44.484;11.314;2023-04-03T18:13:25;99982.44;;;11.50;49.58
60258;BME280;46115;44.484;11.314;2023-04-03T18:17:29;99983.53;;;11.91;48.74
60258;BME280;46115;44.484;11.314;2023-04-03T18:21:32;100001.63;;;11.54;49.71
60258;BME280;46115;44.484;11.314;2023-04-03T22:06:11;100154.22;;;9.05;59.61
60258;BME280;46115;44.484;11.314;2023-04-03T22:10:14;100172.41;;;9.82;57.98
60258;BME280;46115;44.484;11.314;2023-04-03T22:14:17;100174.13;;;9.29;58.80
60258;BME280;46115;44.484;11.314;2023-04-03T22:18:20;100169.94;;;9.79;58.27
60258;BME280;46115;44.484;11.314;2023-04-03T22:22:23;100178.09;;;9.74;57.51
60258;BME280;46115;44.484;11.314;2023-04-03T22:26:26;100178.56;;;9.82;58.04
60258;BME280;46115;44.484;11.314;2023-04-03T22:30:28;100173.19;;;10.01;58.68
60258;BME280;46115;44.484;11.314;2023-04-03T22:34:30;100170.13;;;9.03;59.28
60258;BME280;46115;44.484;11.314;2023-04-03T22:38:35;100167.50;;;9.40;58.22
60258;BME280;46115;44.484;11.314;2023-04-03T22:42:37;100165.94;;;10.05;56.54
60258;BME280;46115;44.484;11.314;2023-04-03T22:46:40;100171.19;;;9.72;57.93
60258;BME280;46115;44.484;11.314;2023-04-03T22:50:42;100173.03;;;9.87;57.11
60258;BME280;46115;44.484;11.314;2023-04-03T22:54:46;100175.69;;;9.87;57.85
60258;BME280;46115;44.484;11.314;2023-04-03T22:58:48;100169.22;;;9.58;58.55
60258;BME280;46115;44.484;11.314;2023-04-03T23:02:51;100171.69;;;9.44;58.85
60258;BME280;46115;44.484;11.314;2023-04-03T23:06:53;100177.69;;;9.28;58.96
60258;BME280;46115;44.484;11.314;2023-04-03T23:10:57;100185.03;;;9.22;59.53
60258;BME280;46115;44.484;11.314;2023-04-03T23:15:00;100180.88;;;9.88;57.50
60258;BME280;46115;44.484;11.314;2023-04-03T23:19:02;100161.00;;;9.28;59.79
60258;BME280;46115;44.484;11.314;2023-04-03T23:23:05;100188.38;;;9.25;60.86
60258;BME280;46115;44.484;11.314;2023-04-03T23:27:08;100188.16;;;9.30;61.07
60258;BME280;46115;44.484;11.314;2023-04-03T23:31:11;100185.00;;;9.04;61.28
60258;BME280;46115;44.484;11.314;2023-04-03T23:35:14;100197.91;;;9.47;59.89
60258;BME280;46115;44.484;11.314;2023-04-03T23:39:16;100194.47;;;8.90;62.07
60258;BME280;46115;44.484;11.314;2023-04-03T23:43:21;100200.88;;;8.84;62.10
60258;BME280;46115;44.484;11.314;2023-04-03T23:47:23;100198.78;;;8.53;64.25
60258;BME280;46115;44.484;11.314;2023-04-03T23:51:25;100195.75;;;8.81;63.94
60258;BME280;46115;44.484;11.314;2023-04-03T23:55:28;100190.00;;;8.73;64.68
60258;BME280;46115;44.484;11.314;2023-04-03T23:59:32;100182.78;;;8.77;64.27
